Time;durP1;ratioP1;P1;durP2;ratioP2;P2;SDS_P1;SDS_P2;PMS_P1;PMS_P2;Temp;Humidity;BMP_temperature;BMP_pressure;BME280_temperature;BME280_humidity;BME280_pressure;Samples;Min_cycle;Max_cycle;Signal;HPM_P1;HPM_P2
2022/11/29 00:01:05;;;;;;;12.70;8.68;;;;;;;8.07;100.00;100971.66;5055150;28;20041;-67
2022/11/29 00:03:31;;;;;;;14.77;10.23;;;;;;;8.07;100.00;100974.25;5052876;28;20024;-67
2022/11/29 00:06:03;;;;;;;15.02;8.82;;;;;;;8.06;100.00;100975.94;5052852;28;20025;-67
2022/11/29 00:08:28;;;;;;;12.15;9.27;;;;;;;8.06;99.71;100967.34;5048140;28;20036;-67
2022/11/29 00:10:54;;;;;;;15.35;9.43;;;;;;;8.01;100.00;100969.94;5051460;28;20032;-67
2022/11/29 00:13:19;;;;;;;16.80;10.57;;;;;;;7.93;99.43;100958.72;5050538;28;20037;-67
2022/11/29 00:15:45;;;;;;;15.63;10.63;;;;;;;7.89;99.70;100962.13;5056065;28;20145;-67
2022/11/29 00:18:10;;;;;;;14.57;9.88;;;;;;;7.89;99.36;100965.53;5052604;28;20366;-68
2022/11/29 00:20:38;;;;;;;14.48;9.13;;;;;;;7.90;99.94;100964.69;5053280;28;20624;-67
2022/11/29 00:23:03;;;;;;;10.57;7.75;;;;;;;7.90;99.67;100964.69;5053722;28;20040;-63
2022/11/29 00:25:29;;;;;;;13.95;9.35;;;;;;;7.92;100.00;100973.28;5054717;28;20565;-63
2022/11/29 00:27:54;;;;;;;12.18;9.23;;;;;;;7.95;99.83;100969.91;5057739;28;20044;-62
2022/11/29 00:30:20;;;;;;;13.60;9.13;;;;;;;7.97;99.88;100973.31;5056130;28;20088;-62
2022/11/29 00:32:45;;;;;;;14.95;9.52;;;;;;;7.97;100.00;100974.19;5055296;28;20086;-63
2022/11/29 00:35:11;;;;;;;12.23;8.13;;;;;;;7.98;99.64;100973.31;5055378;28;20101;-62
2022/11/29 00:37:36;;;;;;;12.35;8.70;;;;;;;8.00;100.00;100976.78;5047564;28;20047;-63
2022/11/29 00:40:02;;;;;;;14.40;8.63;;;;;;;8.00;99.98;100975.91;5051547;28;20044;-62
2022/11/29 00:42:28;;;;;;;14.38;8.88;;;;;;;8.00;99.63;100975.91;5051680;28;20745;-62
2022/11/29 00:44:53;;;;;;;14.45;9.90;;;;;;;8.01;99.49;100977.66;5053693;28;20103;-63
2022/11/29 00:47:19;;;;;;;14.70;9.60;;;;;;;8.01;100.00;100972.50;5043893;28;23708;-63
2022/11/29 00:49:44;;;;;;;15.65;9.52;;;;;;;8.01;99.86;100973.34;5043909;28;20048;-63
2022/11/29 00:52:09;;;;;;;14.65;9.10;;;;;;;8.01;99.92;100977.66;5052541;28;20043;-63
2022/11/29 00:54:35;;;;;;;12.93;8.70;;;;;;;8.02;99.37;100975.06;5051183;28;20066;-63
2022/11/29 00:57:00;;;;;;;13.23;8.40;;;;;;;8.02;99.90;100975.06;5054530;28;20035;-63
2022/11/29 00:59:25;;;;;;;11.93;8.48;;;;;;;8.02;99.30;100974.19;5050984;28;20044;-63
2022/11/29 01:01:51;;;;;;;11.52;7.32;;;;;;;8.04;99.34;100972.47;5047964;28;20409;-63
2022/11/29 01:04:16;;;;;;;10.23;7.30;;;;;;;8.05;99.36;100981.94;5051129;28;20078;-65
2022/11/29 01:06:42;;;;;;;11.70;7.40;;;;;;;8.08;99.19;100978.50;5051694;28;20097;-63
2022/11/29 01:09:07;;;;;;;12.57;7.97;;;;;;;8.08;99.40;100973.38;5048275;28;20536;-63
2022/11/29 01:11:33;;;;;;;9.63;7.10;;;;;;;8.10;99.70;100971.69;5053030;28;20029;-63
2022/11/29 01:14:00;;;;;;;9.63;6.57;;;;;;;8.12;99.48;100964.81;5051437;28;20044;-62
2022/11/29 01:16:27;;;;;;;12.68;7.90;;;;;;;8.13;99.92;100971.69;5052389;28;20489;-62
2022/11/29 01:18:52;;;;;;;11.82;7.38;;;;;;;8.13;99.56;100969.13;5043977;28;20037;-62
2022/11/29 01:21:20;;;;;;;12.77;8.30;;;;;;;8.13;99.94;100979.41;5045762;28;20059;-62
2022/11/29 01:23:48;;;;;;;15.77;8.48;;;;;;;8.11;99.75;100981.09;5050460;28;20037;-62
2022/11/29 01:26:16;;;;;;;12.77;8.30;;;;;;;8.07;99.29;100982.78;5053419;28;20028;-63
2022/11/29 01:28:45;;;;;;;13.20;8.23;;;;;;;8.07;98.74;100984.53;5042785;28;20036;-62
2022/11/29 01:31:16;;;;;;;11.05;6.90;;;;;;;8.09;98.73;100990.53;5032606;28;20152;-64
2022/11/29 01:33:41;;;;;;;10.32;6.70;;;;;;;8.10;99.66;100989.72;5033932;28;20029;-63
2022/11/29 01:36:08;;;;;;;13.52;7.40;;;;;;;8.11;99.23;100981.97;5028961;28;20032;-63
2022/11/29 01:38:35;;;;;;;13.27;7.75;;;;;;;8.11;98.61;100989.69;5033759;28;20037;-63
2022/11/29 01:41:07;;;;;;;11.25;6.85;;;;;;;8.12;99.74;100991.44;5025851;28;20037;-63
2022/11/29 01:43:33;;;;;;;10.52;5.65;;;;;;;8.14;99.26;100999.16;5024824;28;20110;-63
2022/11/29 01:45:59;;;;;;;14.05;7.13;;;;;;;8.15;99.06;100993.16;5029080;28;20128;-63
2022/11/29 01:48:32;;;;;;;11.73;7.75;;;;;;;8.16;98.90;100997.47;5032526;28;20031;-62
2022/11/29 01:51:00;;;;;;;10.43;6.88;;;;;;;8.14;98.62;101000.00;5024927;28;20136;-63
2022/11/29 01:53:27;;;;;;;16.75;6.68;;;;;;;8.13;98.74;100998.28;5028913;28;20129;-63
2022/11/29 01:56:02;;;;;;;8.05;5.72;;;;;;;8.14;99.51;101005.16;5032095;28;20087;-62
2022/11/29 01:58:28;;;;;;;9.75;6.43;;;;;;;8.15;99.28;101004.31;5035193;28;20025;-63
2022/11/29 02:00:54;;;;;;;14.45;7.55;;;;;;;8.17;99.25;100999.16;5030346;28;20060;-63
2022/11/29 02:03:20;;;;;;;13.48;7.07;;;;;;;8.18;99.12;101001.75;5030633;28;20143;-63
2022/11/29 02:05:49;;;;;;;12.35;7.13;;;;;;;8.19;99.26;101002.63;5034630;28;20710;-63
2022/11/29 02:08:19;;;;;;;15.23;7.15;;;;;;;8.18;99.11;101004.34;5032160;28;20032;-63
2022/11/29 02:11:09;;;;;;;11.93;6.47;;;;;;;8.20;99.19;101001.75;5032858;28;20080;-62
2022/11/29 02:14:06;;;;;;;13.23;6.55;;;;;;;8.19;98.86;101011.19;5033518;28;20091;-63
2022/11/29 02:16:40;;;;;;;16.17;6.93;;;;;;;8.19;98.54;101006.03;5033341;28;20723;-62
2022/11/29 02:19:27;;;;;;;13.00;6.13;;;;;;;8.20;98.97;101007.75;5024752;28;20160;-63
2022/11/29 02:22:05;;;;;;;13.45;6.90;;;;;;;8.20;99.14;101012.06;5026402;28;20056;-62
2022/11/29 02:24:49;;;;;;;15.13;7.78;;;;;;;8.19;99.35;101007.78;5028720;28;20402;-62
2022/11/29 02:27:53;;;;;;;12.80;6.60;;;;;;;8.19;99.05;101013.75;5033331;28;20192;-59
2022/11/29 02:30:34;;;;;;;15.95;6.93;;;;;;;8.20;98.91;101007.75;5028512;28;20040;-59
2022/11/29 02:33:24;;;;;;;11.82;6.22;;;;;;;8.21;98.58;101003.47;5037756;28;20067;-59
2022/11/29 02:35:53;;;;;;;12.35;6.22;;;;;;;8.20;98.96;101005.19;5052823;28;20053;-59
2022/11/29 02:38:35;;;;;;;15.57;6.25;;;;;;;8.20;99.09;101002.63;5047059;28;20041;-59
2022/11/29 02:41:28;;;;;;;16.70;6.80;;;;;;;8.21;98.81;101004.34;5051428;28;20082;-59
2022/11/29 02:44:12;;;;;;;14.85;7.07;;;;;;;8.20;98.44;101006.91;5046013;28;20078;-58
2022/11/29 02:46:50;;;;;;;11.27;5.85;;;;;;;8.20;99.47;101012.91;5049136;28;20033;-59
2022/11/29 02:49:15;;;;;;;12.30;7.25;;;;;;;8.20;99.10;101006.91;5050456;28;20043;-59
2022/11/29 02:52:01;;;;;;;19.08;6.93;;;;;;;8.19;99.03;101010.34;5043057;28;20481;-59
2022/11/29 02:54:41;;;;;;;16.80;6.80;;;;;;;8.21;99.13;101008.63;5049815;28;20368;-59
2022/11/29 02:57:22;;;;;;;14.98;6.22;;;;;;;8.22;98.41;101018.09;5051771;28;20062;-58
2022/11/29 03:00:13;;;;;;;15.88;6.15;;;;;;;8.22;98.63;101013.78;5047709;28;20792;-58
2022/11/29 03:03:05;;;;;;;14.60;6.80;;;;;;;8.24;98.75;101018.94;5033629;28;20139;-58
2022/11/29 03:05:34;;;;;;;13.70;6.25;;;;;;;8.26;99.19;101018.09;5051645;28;20139;-59
2022/11/29 03:08:19;;;;;;;16.67;6.30;;;;;;;8.27;99.08;101014.69;5062157;28;20044;-59
2022/11/29 03:10:53;;;;;;;16.98;6.97;;;;;;;8.28;98.42;101012.94;5046220;28;20788;-59
2022/11/29 03:13:43;;;;;;;14.57;6.35;;;;;;;8.30;98.73;101013.84;5045192;28;20036;-58
2022/11/29 03:16:08;;;;;;;16.90;6.88;;;;;;;8.32;98.52;101019.84;5037304;28;20525;-59
2022/11/29 03:18:55;;;;;;;13.15;5.95;;;;;;;8.32;98.60;101020.69;5040193;28;20062;-60
2022/11/29 03:21:21;;;;;;;12.85;6.60;;;;;;;8.35;98.25;101030.16;5059357;28;20037;-60
2022/11/29 03:23:49;;;;;;;15.68;7.20;;;;;;;8.37;98.22;101031.00;5065846;28;20107;-60
2022/11/29 03:26:22;;;;;;;13.70;6.57;;;;;;;8.38;98.84;101036.19;5056947;28;20063;-60
2022/11/29 03:29:16;;;;;;;17.40;7.28;;;;;;;8.38;98.93;101032.75;5043185;28;20148;-60
2022/11/29 03:31:59;;;;;;;25.05;7.97;;;;;;;8.38;98.86;101037.91;5034907;28;20083;-60
2022/11/29 03:34:53;;;;;;;20.98;7.72;;;;;;;8.39;97.68;101039.63;5032674;28;20694;-60
2022/11/29 03:37:36;;;;;;;21.73;8.75;;;;;;;8.39;97.97;101049.94;5040928;28;20041;-60
2022/11/29 03:40:12;;;;;;;22.95;9.13;;;;;;;8.39;97.99;101043.06;5036081;28;20120;-60
2022/11/29 03:42:51;;;;;;;19.80;8.88;;;;;;;8.38;98.02;101048.19;5054468;28;20024;-60
2022/11/29 03:45:27;;;;;;;20.15;8.88;;;;;;;8.38;98.15;101049.06;5057245;28;20056;-60
2022/11/29 03:48:04;;;;;;;20.98;8.93;;;;;;;8.39;97.56;101053.38;5040170;28;20121;-60
2022/11/29 03:50:41;;;;;;;22.00;9.32;;;;;;;8.41;97.75;101053.38;5040773;28;20634;-60
2022/11/29 03:53:22;;;;;;;25.88;9.52;;;;;;;8.42;98.49;101061.13;5046382;28;20024;-60
2022/11/29 03:55:47;;;;;;;20.73;8.80;;;;;;;8.42;98.02;101055.97;5053161;28;20397;-60
2022/11/29 03:58:28;;;;;;;21.40;9.00;;;;;;;8.45;98.11;101060.28;5059232;28;20039;-60
2022/11/29 04:01:15;;;;;;;28.77;10.05;;;;;;;8.46;98.56;101051.66;5049938;28;20068;-60
2022/11/29 04:04:02;;;;;;;20.25;9.32;;;;;;;8.47;98.57;101055.97;5053660;28;20031;-61
2022/11/29 04:06:39;;;;;;;25.08;10.55;;;;;;;8.46;97.97;101060.25;5051793;28;20064;-60
2022/11/29 04:09:28;;;;;;;29.08;11.52;;;;;;;8.47;98.64;101068.84;5053517;28;20028;-60
2022/11/29 04:12:18;;;;;;;30.75;11.68;;;;;;;8.49;97.73;101064.56;5055595;28;20044;-60
2022/11/29 04:15:14;;;;;;;29.55;10.65;;;;;;;8.49;98.32;101064.56;5050894;28;20417;-60
2022/11/29 04:18:20;;;;;;;26.15;10.43;;;;;;;8.50;97.88;101069.72;5048453;28;20139;-60
2022/11/29 04:21:07;;;;;;;23.38;9.95;;;;;;;8.49;98.06;101069.72;5044248;28;20055;-60
2022/11/29 04:24:10;;;;;;;28.58;12.55;;;;;;;8.48;98.16;101068.88;5038233;28;20087;-60
2022/11/29 04:26:58;;;;;;;26.35;11.65;;;;;;;8.48;97.43;101075.75;5029713;28;20033;-60
2022/11/29 04:29:51;;;;;;;30.20;12.35;;;;;;;8.48;97.25;101079.19;5027913;28;20053;-59
2022/11/29 04:32:52;;;;;;;41.88;13.05;;;;;;;8.48;97.87;101074.03;5048937;28;20047;-60
2022/11/29 04:35:28;;;;;;;31.08;12.70;;;;;;;8.49;97.77;101083.47;5052603;28;20121;-60
2022/11/29 04:38:09;;;;;;;40.58;13.80;;;;;;;8.48;98.06;101083.47;5049758;28;20043;-60
2022/11/29 04:41:02;;;;;;;32.22;13.23;;;;;;;8.47;98.18;101082.59;5051485;28;20735;-61
2022/11/29 04:43:52;;;;;;;41.08;14.00;;;;;;;8.48;98.01;101091.19;5050487;28;20041;-60
2022/11/29 04:46:32;;;;;;;35.65;13.25;;;;;;;8.49;98.10;101096.34;5054654;28;20068;-60
2022/11/29 04:49:34;;;;;;;45.95;14.68;;;;;;;8.47;98.62;101092.91;5054504;28;20926;-60
2022/11/29 04:52:05;;;;;;;39.63;15.35;;;;;;;8.47;97.84;101098.06;5051910;28;20101;-60
2022/11/29 04:54:51;;;;;;;43.38;16.23;;;;;;;8.48;98.20;101102.38;5056894;28;20017;-60
2022/11/29 04:57:46;;;;;;;44.50;15.93;;;;;;;8.49;98.00;101101.50;5051508;28;20074;-60
2022/11/29 05:00:14;;;;;;;38.78;16.35;;;;;;;8.51;97.75;101106.66;5054815;28;20044;-59
2022/11/29 05:03:00;;;;;;;46.28;17.00;;;;;;;8.51;97.83;101104.09;5049001;28;20094;-59
2022/11/29 05:05:56;;;;;;;55.83;16.85;;;;;;;8.53;97.89;101110.09;5053837;28;20789;-60
2022/11/29 05:08:55;;;;;;;44.22;16.83;;;;;;;8.54;98.26;101115.25;5049780;28;20033;-60
2022/11/29 05:11:32;;;;;;;47.00;18.27;;;;;;;8.54;98.50;101117.00;5035221;28;20033;-59
2022/11/29 05:14:26;;;;;;;37.28;16.48;;;;;;;8.55;98.12;101116.13;5029956;28;20508;-59
2022/11/29 05:17:13;;;;;;;63.15;19.45;;;;;;;8.56;98.10;101123.00;5033988;28;20044;-60
2022/11/29 05:19:55;;;;;;;52.72;18.48;;;;;;;8.58;98.13;101126.44;5034322;28;20104;-60
2022/11/29 05:23:08;;;;;;;49.53;20.48;;;;;;;8.58;98.71;101124.72;5030027;28;20036;-59
2022/11/29 05:25:55;;;;;;;62.78;19.95;;;;;;;8.58;98.13;101124.72;5035530;28;20047;-59
2022/11/29 05:28:21;;;;;;;72.38;22.92;;;;;;;8.58;98.09;101131.59;5036637;28;20036;-60
2022/11/29 05:31:20;;;;;;;68.68;25.77;;;;;;;8.60;98.12;101136.78;5036547;28;20572;-59
2022/11/29 05:34:10;;;;;;;75.13;25.25;;;;;;;8.59;99.19;101138.47;5030573;28;20055;-60
2022/11/29 05:36:50;;;;;;;75.78;26.35;;;;;;;8.62;98.38;101142.78;5033907;28;20437;-60
2022/11/29 05:39:21;;;;;;;69.55;26.98;;;;;;;8.62;98.81;101148.81;5034938;28;20506;-60
2022/11/29 05:41:52;;;;;;;73.45;26.17;;;;;;;8.62;98.97;101150.50;5053658;28;20044;-60
2022/11/29 05:44:40;;;;;;;81.75;28.55;;;;;;;8.64;98.72;101152.25;5049004;28;20044;-60
2022/11/29 05:47:10;;;;;;;69.15;24.98;;;;;;;8.64;98.66;101146.22;5050311;28;20107;-60
2022/11/29 05:50:00;;;;;;;66.65;26.92;;;;;;;8.65;98.99;101143.66;5052070;28;20036;-60
2022/11/29 05:52:48;;;;;;;78.13;28.00;;;;;;;8.64;98.99;101141.94;5053183;28;20032;-59
2022/11/29 05:55:14;;;;;;;81.18;26.15;;;;;;;8.65;98.88;101153.97;5044545;28;20033;-59
2022/11/29 05:57:58;;;;;;;83.53;28.45;;;;;;;8.67;98.81;101151.38;5035494;28;20028;-60
2022/11/29 06:00:41;;;;;;;87.90;26.70;;;;;;;8.66;98.41;101150.56;5055450;28;20032;-60
2022/11/29 06:03:32;;;;;;;88.40;31.52;;;;;;;8.67;99.04;101154.84;5053862;28;20029;-60
2022/11/29 06:06:21;;;;;;;66.22;25.10;;;;;;;8.67;98.89;101148.81;5047993;28;20044;-60
2022/11/29 06:08:58;;;;;;;79.95;28.05;;;;;;;8.69;99.17;101162.59;5031143;28;20059;-60
2022/11/29 06:11:32;;;;;;;88.82;27.95;;;;;;;8.67;99.16;101170.28;5033390;28;20048;-60
2022/11/29 06:14:06;;;;;;;89.47;29.77;;;;;;;8.66;99.09;101171.16;5047230;28;20032;-60
2022/11/29 06:16:40;;;;;;;93.50;28.90;;;;;;;8.66;99.05;101171.16;5050132;28;20076;-60
2022/11/29 06:19:18;;;;;;;100.32;30.75;;;;;;;8.64;99.22;101178.00;5040789;28;20029;-60
2022/11/29 06:22:29;;;;;;;88.65;29.40;;;;;;;8.65;99.55;101181.44;5034836;28;20526;-63
2022/11/29 06:25:09;;;;;;;101.32;30.40;;;;;;;8.63;98.75;101181.47;5054374;28;20041;-60
2022/11/29 06:27:41;;;;;;;114.85;30.30;;;;;;;8.63;99.05;101190.91;5053354;28;20036;-60
2022/11/29 06:30:11;;;;;;;95.68;30.67;;;;;;;8.63;99.07;101186.63;5050449;28;20490;-60
2022/11/29 06:32:50;;;;;;;101.43;32.03;;;;;;;8.62;99.33;101191.75;5050826;28;20884;-60
2022/11/29 06:35:28;;;;;;;106.50;31.52;;;;;;;8.60;99.46;101191.75;5054151;28;20623;-60
2022/11/29 06:37:57;;;;;;;88.45;29.48;;;;;;;8.60;99.31;101188.31;5052873;28;20044;-60
2022/11/29 06:40:23;;;;;;;111.03;33.30;;;;;;;8.61;99.38;101192.59;5054711;28;20519;-60
2022/11/29 06:42:48;;;;;;;107.13;32.92;;;;;;;8.60;99.88;101196.03;5051753;28;20037;-60
2022/11/29 06:45:14;;;;;;;110.05;32.90;;;;;;;8.60;99.94;101196.91;5054637;28;20733;-60
2022/11/29 06:47:44;;;;;;;107.10;34.70;;;;;;;8.58;99.61;101194.28;5057329;28;20079;-60
2022/11/29 06:50:31;;;;;;;108.75;32.10;;;;;;;8.60;100.00;101199.47;5054815;28;20501;-60
2022/11/29 06:53:23;;;;;;;98.25;31.20;;;;;;;8.60;100.00;101203.75;5054546;28;20051;-60
2022/11/29 06:55:58;;;;;;;93.18;30.63;;;;;;;8.62;100.00;101212.34;5049215;28;20712;-61
2022/11/29 06:58:32;;;;;;;103.55;32.67;;;;;;;8.61;100.00;101206.34;5046362;28;20044;-61
2022/11/29 07:01:28;;;;;;;102.97;30.52;;;;;;;8.61;100.00;101216.63;5051637;28;20037;-60
2022/11/29 07:04:06;;;;;;;111.93;33.53;;;;;;;8.63;100.00;101212.38;5056561;28;20041;-60
2022/11/29 07:06:33;;;;;;;109.03;32.47;;;;;;;8.63;100.00;101219.25;5056419;28;20044;-60
2022/11/29 07:09:14;;;;;;;102.15;32.88;;;;;;;8.64;100.00;101220.94;5055337;28;20032;-60
2022/11/29 07:11:40;;;;;;;107.97;33.70;;;;;;;8.65;100.00;101223.56;5056487;28;20041;-60
2022/11/29 07:14:06;;;;;;;98.45;33.45;;;;;;;8.66;100.00;101225.28;5058722;28;20055;-60
2022/11/29 07:16:38;;;;;;;99.80;34.17;;;;;;;8.69;100.00;101232.16;5054903;28;20140;-60
2022/11/29 07:19:27;;;;;;;104.53;32.95;;;;;;;8.68;100.00;101231.31;5057286;28;20571;-61
2022/11/29 07:22:25;;;;;;;104.68;32.85;;;;;;;8.69;100.00;101222.72;5048135;28;20037;-60
2022/11/29 07:24:59;;;;;;;113.85;34.05;;;;;;;8.71;100.00;101226.16;5052386;28;20048;-60
2022/11/29 07:27:33;;;;;;;96.35;32.13;;;;;;;8.72;100.00;101227.03;5055208;28;20024;-61
2022/11/29 07:30:14;;;;;;;107.77;34.13;;;;;;;8.73;100.00;101232.19;5039938;28;20772;-61
2022/11/29 07:33:07;;;;;;;118.75;38.22;;;;;;;8.74;100.00;101238.22;5058279;28;20055;-60
2022/11/29 07:35:53;;;;;;;109.32;34.33;;;;;;;8.75;100.00;101242.53;5059126;28;20098;-60
2022/11/29 07:38:42;;;;;;;115.25;36.47;;;;;;;8.75;100.00;101239.94;5037294;28;20461;-60
2022/11/29 07:41:13;;;;;;;127.55;40.70;;;;;;;8.75;100.00;101243.38;5036066;28;20078;-61
2022/11/29 07:43:52;;;;;;;129.68;41.00;;;;;;;8.77;100.00;101244.25;5057570;28;20043;-61
2022/11/29 07:46:17;;;;;;;124.15;38.97;;;;;;;8.77;100.00;101241.69;5052236;28;20040;-60
2022/11/29 07:48:42;;;;;;;140.38;42.05;;;;;;;8.78;100.00;101258.88;5052309;28;20024;-60
2022/11/29 07:51:08;;;;;;;128.50;39.42;;;;;;;8.78;100.00;101255.44;5055597;28;20575;-60
2022/11/29 07:53:40;;;;;;;143.20;42.05;;;;;;;8.80;100.00;101266.59;5053320;28;22273;-60
2022/11/29 07:56:05;;;;;;;137.88;39.38;;;;;;;8.80;100.00;101257.16;5052926;28;20032;-61
2022/11/29 07:58:31;;;;;;;132.70;39.22;;;;;;;8.80;100.00;101266.59;5052992;28;20038;-60
2022/11/29 08:00:56;;;;;;;135.45;41.78;;;;;;;8.79;100.00;101263.16;5050821;28;20402;-61
2022/11/29 08:03:21;;;;;;;146.70;41.80;;;;;;;8.80;100.00;101267.47;5059543;28;20029;-60
2022/11/29 08:05:47;;;;;;;148.07;42.63;;;;;;;8.79;100.00;101276.03;5055941;28;20394;-60
2022/11/29 08:08:13;;;;;;;139.55;40.22;;;;;;;8.80;100.00;101277.78;5056653;28;20040;-60
2022/11/29 08:10:38;;;;;;;149.63;42.75;;;;;;;8.81;100.00;101276.06;5047846;28;20033;-60
2022/11/29 08:13:03;;;;;;;145.50;41.63;;;;;;;8.80;100.00;101282.94;5051419;28;20063;-60
2022/11/29 08:15:29;;;;;;;150.80;41.67;;;;;;;8.80;100.00;101285.50;5052762;28;20044;-61
2022/11/29 08:17:54;;;;;;;150.50;43.20;;;;;;;8.81;100.00;101287.22;5055782;28;20119;-60
2022/11/29 08:20:20;;;;;;;142.75;41.50;;;;;;;8.82;100.00;101295.81;5052001;28;20799;-60
2022/11/29 08:22:53;;;;;;;150.27;42.05;;;;;;;8.82;100.00;101299.25;5058550;28;20060;-60
2022/11/29 08:25:18;;;;;;;139.18;41.90;;;;;;;8.78;100.00;101294.09;5056195;28;20049;-60
2022/11/29 08:27:43;;;;;;;137.18;42.08;;;;;;;8.77;100.00;101300.94;5056250;28;20054;-60
2022/11/29 08:30:09;;;;;;;136.70;41.83;;;;;;;8.76;99.59;101304.38;5054389;28;20032;-60
2022/11/29 08:32:34;;;;;;;138.15;40.22;;;;;;;8.77;100.00;101302.66;5045045;28;20040;-60
2022/11/29 08:35:00;;;;;;;132.27;40.55;;;;;;;8.79;99.66;101304.41;5037712;28;20371;-61
2022/11/29 08:37:26;;;;;;;138.63;39.83;;;;;;;8.80;100.00;101308.72;5037151;28;20044;-60
2022/11/29 08:39:51;;;;;;;134.73;38.13;;;;;;;8.82;100.00;101313.84;5036135;28;20044;-61
2022/11/29 08:42:16;;;;;;;132.18;40.33;;;;;;;8.82;100.00;101308.72;5051014;28;20111;-68
2022/11/29 08:44:42;;;;;;;141.85;39.65;;;;;;;8.84;99.98;101317.34;5062439;28;20052;-68
2022/11/29 08:50:02;;;;;;;138.10;41.88;;;;;;;8.87;100.00;101320.78;5033397;28;20056;-68
2022/11/29 08:55:25;;;;;;;139.38;40.80;;;;;;;8.90;100.00;101325.94;5037615;28;20799;-67
2022/11/29 08:57:51;;;;;;;121.22;37.45;;;;;;;8.94;100.00;101334.56;5057142;28;21718;-68
2022/11/29 09:00:20;;;;;;;146.35;43.00;;;;;;;8.92;100.00;101334.59;5052666;28;20032;-68
2022/11/29 09:02:45;;;;;;;121.63;38.72;;;;;;;8.93;99.57;101331.13;5056955;28;20488;-67
2022/11/29 09:05:11;;;;;;;118.45;37.53;;;;;;;8.93;99.33;101335.44;5058101;28;20032;-67
2022/11/29 09:07:36;;;;;;;111.13;36.20;;;;;;;8.94;99.20;101334.56;5046300;28;20040;-68
2022/11/29 09:10:06;;;;;;;117.13;38.08;;;;;;;8.95;99.24;101344.03;5049815;28;20044;-67
2022/11/29 09:12:34;;;;;;;114.63;36.28;;;;;;;8.97;98.74;101334.59;5046464;28;20457;-67
2022/11/29 09:14:59;;;;;;;114.78;37.00;;;;;;;8.96;98.99;101344.03;5051332;28;20466;-68
2022/11/29 09:17:25;;;;;;;110.93;36.22;;;;;;;8.98;99.14;101349.22;5053634;28;20052;-68
2022/11/29 09:19:51;;;;;;;132.38;38.10;;;;;;;8.98;99.18;101349.22;5049105;28;20041;-67
2022/11/29 09:22:16;;;;;;;107.40;33.08;;;;;;;9.00;99.33;101350.97;5050203;28;20139;-67
2022/11/29 09:24:41;;;;;;;118.38;35.70;;;;;;;8.96;98.77;101354.34;5054838;28;20040;-67
2022/11/29 09:27:07;;;;;;;125.28;38.50;;;;;;;8.97;98.20;101357.81;5057280;28;20468;-67
2022/11/29 09:29:32;;;;;;;96.50;34.75;;;;;;;8.99;98.16;101356.13;5052064;28;20040;-68
2022/11/29 09:31:58;;;;;;;107.50;32.28;;;;;;;9.01;98.32;101368.16;5056722;28;20072;-67
2022/11/29 09:34:23;;;;;;;119.05;37.92;;;;;;;9.00;98.63;101374.16;5052428;28;20041;-68
2022/11/29 09:36:49;;;;;;;123.18;38.25;;;;;;;9.02;98.00;101371.63;5054363;28;20036;-67
2022/11/29 09:39:15;;;;;;;116.78;38.30;;;;;;;9.05;98.41;101366.47;5054643;28;20028;-68
2022/11/29 09:41:46;;;;;;;108.25;37.70;;;;;;;9.02;98.38;101371.63;5051142;28;20032;-68
2022/11/29 09:44:17;;;;;;;107.25;37.22;;;;;;;9.03;97.65;101378.47;5053776;28;20750;-68
2022/11/29 09:47:09;;;;;;;110.93;37.08;;;;;;;9.02;96.91;101384.50;5057507;28;20048;-68
2022/11/29 09:49:48;;;;;;;114.63;35.78;;;;;;;9.05;97.49;101384.53;5059120;28;20115;-68
2022/11/29 09:52:28;;;;;;;115.45;36.25;;;;;;;9.06;96.91;101391.41;5065103;28;20036;-68
2022/11/29 09:55:08;;;;;;;109.05;34.50;;;;;;;9.08;96.80;101395.72;5056372;28;20047;-60
2022/11/29 09:57:35;;;;;;;107.72;35.08;;;;;;;9.10;96.98;101394.03;5052536;28;20464;-60
2022/11/29 10:00:06;;;;;;;105.30;34.42;;;;;;;9.10;97.22;101401.75;5051649;28;20210;-60
2022/11/29 10:02:46;;;;;;;103.85;34.08;;;;;;;9.11;96.97;101400.03;5050045;28;20032;-60
2022/11/29 10:05:20;;;;;;;104.57;33.47;;;;;;;9.14;97.01;101395.75;5048463;28;20598;-60
2022/11/29 10:07:54;;;;;;;100.03;34.80;;;;;;;9.18;96.94;101398.34;5055448;28;20662;-60
2022/11/29 10:10:26;;;;;;;97.90;33.15;;;;;;;9.16;96.61;101400.06;5053542;28;20697;-61
2022/11/29 10:12:59;;;;;;;113.20;34.75;;;;;;;9.13;96.19;101396.63;5055677;28;20036;-60
2022/11/29 10:15:27;;;;;;;104.93;32.05;;;;;;;9.14;95.45;101406.06;5055288;28;20033;-61
2022/11/29 10:18:18;;;;;;;104.60;33.95;;;;;;;9.11;95.25;101408.63;5055040;28;20035;-60
2022/11/29 10:20:47;;;;;;;105.60;33.90;;;;;;;9.15;95.61;101404.38;5052846;28;20032;-60
2022/11/29 10:23:21;;;;;;;103.25;32.88;;;;;;;9.21;95.89;101404.41;5055893;28;20098;-60
2022/11/29 10:25:50;;;;;;;84.60;32.28;;;;;;;9.20;94.79;101407.00;5060297;28;20145;-60
2022/11/29 10:28:21;;;;;;;107.97;33.35;;;;;;;9.26;95.52;101410.44;5057951;28;20508;-60
2022/11/29 10:30:47;;;;;;;100.05;31.73;;;;;;;9.26;95.44;101402.72;5048980;28;20041;-60
2022/11/29 10:33:28;;;;;;;95.28;30.42;;;;;;;9.28;94.82;101406.19;5036848;28;20031;-60
2022/11/29 10:36:04;;;;;;;94.45;32.58;;;;;;;9.30;94.42;101408.75;5035771;28;20049;-61
2022/11/29 10:38:29;;;;;;;95.28;32.65;;;;;;;9.31;94.77;101407.94;5049407;28;20061;-61
2022/11/29 10:41:06;;;;;;;97.88;30.33;;;;;;;9.32;95.58;101407.91;5050589;28;20583;-61
2022/11/29 10:43:32;;;;;;;106.65;36.00;;;;;;;9.34;95.14;101402.78;5054935;28;20051;-60
2022/11/29 10:45:57;;;;;;;94.05;29.95;;;;;;;9.34;95.09;101406.25;5056842;28;20056;-60
2022/11/29 10:48:32;;;;;;;90.28;31.60;;;;;;;9.31;94.66;101398.47;5053534;28;20034;-60
2022/11/29 10:51:00;;;;;;;86.38;31.05;;;;;;;9.34;93.80;101400.22;5058710;28;20040;-61
2022/11/29 10:53:29;;;;;;;93.10;31.58;;;;;;;9.37;93.95;101408.84;5057784;28;20037;-60
2022/11/29 10:56:04;;;;;;;97.03;30.52;;;;;;;9.41;94.16;101404.53;5062685;28;20033;-61
2022/11/29 10:58:30;;;;;;;90.65;31.45;;;;;;;9.42;94.01;101404.56;5060451;28;20037;-60
2022/11/29 11:01:07;;;;;;;94.38;30.95;;;;;;;9.47;94.23;101412.31;5056001;28;20043;-60
2022/11/29 11:03:56;;;;;;;91.95;30.23;;;;;;;9.45;93.91;101408.88;5059328;28;20024;-61
2022/11/29 11:06:23;;;;;;;84.85;27.30;;;;;;;9.44;94.35;101407.13;5053261;28;20048;-60
2022/11/29 11:09:19;;;;;;;86.32;30.92;;;;;;;9.45;93.64;101411.44;5037166;28;20033;-59
2022/11/29 11:11:53;;;;;;;86.57;30.15;;;;;;;9.44;93.75;101405.41;5027995;28;20041;-59
2022/11/29 11:14:27;;;;;;;90.30;29.73;;;;;;;9.47;93.62;101405.44;5036553;28;20029;-59
2022/11/29 11:16:53;;;;;;;88.18;30.88;;;;;;;9.54;93.31;101403.78;5032906;28;20037;-58
2022/11/29 11:19:30;;;;;;;88.55;28.30;;;;;;;9.61;93.34;101403.00;5040514;28;20086;-59
2022/11/29 11:21:58;;;;;;;77.05;26.60;;;;;;;9.61;92.69;101403.00;5029661;28;20088;-59
2022/11/29 11:24:27;;;;;;;89.03;28.63;;;;;;;9.65;93.06;101407.31;5031176;28;20116;-61
2022/11/29 11:26:53;;;;;;;85.10;27.95;;;;;;;9.69;93.20;101398.72;5057103;28;20676;-58
2022/11/29 11:29:24;;;;;;;76.10;26.95;;;;;;;9.77;93.43;101403.91;5055485;28;20214;-58
2022/11/29 11:31:56;;;;;;;98.82;31.50;;;;;;;9.71;92.09;101401.31;5055417;28;20708;-58
2022/11/29 11:34:37;;;;;;;80.90;29.35;;;;;;;9.65;92.34;101405.59;5053870;28;20151;-58
2022/11/29 11:37:15;;;;;;;91.05;28.58;;;;;;;9.60;91.28;101404.72;5051728;28;20039;-59
2022/11/29 11:39:42;;;;;;;71.40;26.90;;;;;;;9.54;91.60;101407.22;5050700;28;20491;-58
2022/11/29 11:42:36;;;;;;;75.57;25.48;;;;;;;9.56;91.32;101409.78;5059721;28;20033;-58
2022/11/29 11:45:09;;;;;;;76.13;26.65;;;;;;;9.55;92.04;101408.09;5055928;28;20040;-59
2022/11/29 11:47:56;;;;;;;70.85;25.88;;;;;;;9.52;92.15;101410.66;5054757;28;20044;-58
2022/11/29 11:50:44;;;;;;;71.97;26.38;;;;;;;9.50;92.56;101414.91;5052813;28;20040;-58
2022/11/29 11:53:30;;;;;;;67.43;24.77;;;;;;;9.48;92.05;101414.06;5045249;28;20114;-59
2022/11/29 11:56:01;;;;;;;59.83;23.65;;;;;;;9.48;91.30;101411.47;5054021;28;20076;-59
2022/11/29 11:58:52;;;;;;;59.55;22.75;;;;;;;9.48;90.77;101409.75;5057544;28;20041;-59